sensor_id;sensor_type;location;lat;lon;timestamp;P1;durP1;ratioP1;P2;durP2;ratioP2
53108;SDS011;39007;53.090;6.074;2023-07-31T00:00:36;9.18;;;2.85;;
53108;SDS011;39007;53.090;6.074;2023-07-31T00:03:02;9.45;;;3.15;;
53108;SDS011;39007;53.090;6.074;2023-07-31T00:05:28;9.70;;;2.97;;
53108;SDS011;39007;53.090;6.074;2023-07-31T00:07:54;8.93;;;2.95;;
53108;SDS011;39007;53.090;6.074;2023-07-31T00:10:20;7.30;;;2.55;;
53108;SDS011;39007;53.090;6.074;2023-07-31T00:12:47;9.98;;;2.60;;
53108;SDS011;39007;53.090;6.074;2023-07-31T00:15:13;7.95;;;2.50;;
53108;SDS011;39007;53.090;6.074;2023-07-31T00:17:39;7.18;;;2.65;;
53108;SDS011;39007;53.090;6.074;2023-07-31T00:20:06;6.13;;;2.25;;
53108;SDS011;39007;53.090;6.074;2023-07-31T00:22:32;8.88;;;2.67;;
53108;SDS011;39007;53.090;6.074;2023-07-31T00:24:58;7.88;;;2.72;;
53108;SDS011;39007;53.090;6.074;2023-07-31T00:27:25;8.48;;;3.00;;
53108;SDS011;39007;53.090;6.074;2023-07-31T00:29:51;7.60;;;3.10;;
53108;SDS011;39007;53.090;6.074;2023-07-31T00:32:17;9.02;;;3.33;;
53108;SDS011;39007;53.090;6.074;2023-07-31T00:34:43;11.25;;;3.65;;
53108;SDS011;39007;53.090;6.074;2023-07-31T00:37:09;7.60;;;3.40;;
53108;SDS011;39007;53.090;6.074;2023-07-31T00:39:35;7.88;;;3.20;;
53108;SDS011;39007;53.090;6.074;2023-07-31T00:42:01;7.70;;;3.97;;
53108;SDS011;39007;53.090;6.074;2023-07-31T00:44:28;6.65;;;3.35;;
53108;SDS011;39007;53.090;6.074;2023-07-31T00:46:54;7.90;;;3.65;;
53108;SDS011;39007;53.090;6.074;2023-07-31T00:49:21;7.63;;;4.13;;
53108;SDS011;39007;53.090;6.074;2023-07-31T00:51:47;7.35;;;4.00;;
53108;SDS011;39007;53.090;6.074;2023-07-31T00:54:13;6.32;;;3.58;;
53108;SDS011;39007;53.090;6.074;2023-07-31T00:56:39;6.43;;;3.80;;
53108;SDS011;39007;53.090;6.074;2023-07-31T00:59:06;9.90;;;3.55;;
53108;SDS011;39007;53.090;6.074;2023-07-31T01:01:32;6.28;;;3.30;;
53108;SDS011;39007;53.090;6.074;2023-07-31T01:03:58;4.43;;;2.28;;
53108;SDS011;39007;53.090;6.074;2023-07-31T01:06:40;6.43;;;2.30;;
53108;SDS011;39007;53.090;6.074;2023-07-31T01:09:11;4.93;;;2.20;;
53108;SDS011;39007;53.090;6.074;2023-07-31T01:11:48;5.03;;;2.15;;
53108;SDS011;39007;53.090;6.074;2023-07-31T01:14:15;5.78;;;1.90;;
53108;SDS011;39007;53.090;6.074;2023-07-31T01:16:41;5.50;;;1.98;;
53108;SDS011;39007;53.090;6.074;2023-07-31T01:19:07;6.78;;;1.80;;
53108;SDS011;39007;53.090;6.074;2023-07-31T01:26:47;4.75;;;1.52;;
53108;SDS011;39007;53.090;6.074;2023-07-31T01:31:44;5.43;;;1.70;;
53108;SDS011;39007;53.090;6.074;2023-07-31T01:34:14;3.97;;;1.58;;
53108;SDS011;39007;53.090;6.074;2023-07-31T01:36:42;4.20;;;1.60;;
53108;SDS011;39007;53.090;6.074;2023-07-31T01:39:08;5.65;;;1.80;;
53108;SDS011;39007;53.090;6.074;2023-07-31T01:41:34;6.90;;;1.83;;
53108;SDS011;39007;53.090;6.074;2023-07-31T01:44:00;5.53;;;1.90;;
53108;SDS011;39007;53.090;6.074;2023-07-31T01:46:26;11.65;;;1.80;;
53108;SDS011;39007;53.090;6.074;2023-07-31T01:48:52;7.75;;;2.00;;
53108;SDS011;39007;53.090;6.074;2023-07-31T01:51:18;8.63;;;2.30;;
53108;SDS011;39007;53.090;6.074;2023-07-31T01:53:44;6.38;;;2.00;;
53108;SDS011;39007;53.090;6.074;2023-07-31T01:56:10;6.88;;;2.03;;
53108;SDS011;39007;53.090;6.074;2023-07-31T01:58:36;7.10;;;1.90;;
53108;SDS011;39007;53.090;6.074;2023-07-31T02:01:02;7.45;;;2.08;;
53108;SDS011;39007;53.090;6.074;2023-07-31T02:03:28;10.48;;;1.80;;
53108;SDS011;39007;53.090;6.074;2023-07-31T02:05:54;8.18;;;1.98;;
53108;SDS011;39007;53.090;6.074;2023-07-31T02:08:21;8.13;;;2.58;;
53108;SDS011;39007;53.090;6.074;2023-07-31T02:10:47;7.22;;;2.40;;
53108;SDS011;39007;53.090;6.074;2023-07-31T02:13:13;5.55;;;2.17;;
53108;SDS011;39007;53.090;6.074;2023-07-31T02:15:39;5.47;;;2.20;;
53108;SDS011;39007;53.090;6.074;2023-07-31T02:18:06;6.32;;;2.25;;
53108;SDS011;39007;53.090;6.074;2023-07-31T02:20:35;7.80;;;2.75;;
53108;SDS011;39007;53.090;6.074;2023-07-31T02:23:01;6.50;;;2.30;;
53108;SDS011;39007;53.090;6.074;2023-07-31T02:25:27;6.93;;;2.40;;
53108;SDS011;39007;53.090;6.074;2023-07-31T02:27:53;6.20;;;2.13;;
53108;SDS011;39007;53.090;6.074;2023-07-31T02:30:19;6.22;;;2.40;;
53108;SDS011;39007;53.090;6.074;2023-07-31T02:32:45;8.20;;;2.25;;
53108;SDS011;39007;53.090;6.074;2023-07-31T02:35:11;8.38;;;2.50;;
53108;SDS011;39007;53.090;6.074;2023-07-31T02:37:40;5.93;;;1.95;;
53108;SDS011;39007;53.090;6.074;2023-07-31T02:40:07;6.32;;;1.98;;
53108;SDS011;39007;53.090;6.074;2023-07-31T02:42:33;6.18;;;2.30;;
53108;SDS011;39007;53.090;6.074;2023-07-31T02:44:59;5.03;;;1.92;;
53108;SDS011;39007;53.090;6.074;2023-07-31T02:47:25;8.10;;;2.30;;
53108;SDS011;39007;53.090;6.074;2023-07-31T02:49:51;5.50;;;2.00;;
53108;SDS011;39007;53.090;6.074;2023-07-31T02:52:17;7.75;;;2.22;;
53108;SDS011;39007;53.090;6.074;2023-07-31T02:54:43;7.72;;;2.25;;
53108;SDS011;39007;53.090;6.074;2023-07-31T02:57:09;7.05;;;2.10;;
53108;SDS011;39007;53.090;6.074;2023-07-31T02:59:35;7.57;;;2.10;;
53108;SDS011;39007;53.090;6.074;2023-07-31T03:02:01;9.13;;;2.30;;
53108;SDS011;39007;53.090;6.074;2023-07-31T03:04:28;7.75;;;2.03;;
53108;SDS011;39007;53.090;6.074;2023-07-31T03:06:54;5.10;;;2.00;;
53108;SDS011;39007;53.090;6.074;2023-07-31T03:09:20;7.70;;;2.38;;
53108;SDS011;39007;53.090;6.074;2023-07-31T03:11:46;5.35;;;1.83;;
53108;SDS011;39007;53.090;6.074;2023-07-31T03:14:12;7.13;;;1.92;;
53108;SDS011;39007;53.090;6.074;2023-07-31T03:16:38;4.18;;;1.95;;
53108;SDS011;39007;53.090;6.074;2023-07-31T03:19:04;6.63;;;2.03;;
53108;SDS011;39007;53.090;6.074;2023-07-31T03:21:30;5.93;;;1.90;;
53108;SDS011;39007;53.090;6.074;2023-07-31T03:23:56;4.72;;;1.80;;
53108;SDS011;39007;53.090;6.074;2023-07-31T03:26:22;3.90;;;1.63;;
53108;SDS011;39007;53.090;6.074;2023-07-31T03:28:48;4.82;;;1.77;;
53108;SDS011;39007;53.090;6.074;2023-07-31T03:31:15;6.22;;;1.70;;
53108;SDS011;39007;53.090;6.074;2023-07-31T03:33:41;5.05;;;1.90;;
53108;SDS011;39007;53.090;6.074;2023-07-31T03:36:07;2.83;;;1.50;;
53108;SDS011;39007;53.090;6.074;2023-07-31T03:38:33;5.65;;;1.60;;
53108;SDS011;39007;53.090;6.074;2023-07-31T03:41:00;2.85;;;1.50;;
53108;SDS011;39007;53.090;6.074;2023-07-31T03:43:27;3.50;;;1.77;;
53108;SDS011;39007;53.090;6.074;2023-07-31T03:45:53;4.53;;;1.70;;
53108;SDS011;39007;53.090;6.074;2023-07-31T03:48:19;4.65;;;1.80;;
53108;SDS011;39007;53.090;6.074;2023-07-31T03:50:45;3.17;;;1.55;;
53108;SDS011;39007;53.090;6.074;2023-07-31T03:53:11;5.18;;;1.70;;
53108;SDS011;39007;53.090;6.074;2023-07-31T03:55:37;3.95;;;1.80;;
53108;SDS011;39007;53.090;6.074;2023-07-31T03:58:03;4.68;;;1.60;;
53108;SDS011;39007;53.090;6.074;2023-07-31T04:00:30;3.92;;;1.60;;
53108;SDS011;39007;53.090;6.074;2023-07-31T04:02:56;5.25;;;1.83;;
53108;SDS011;39007;53.090;6.074;2023-07-31T04:05:22;3.22;;;1.70;;
53108;SDS011;39007;53.090;6.074;2023-07-31T04:07:48;3.40;;;1.40;;
53108;SDS011;39007;53.090;6.074;2023-07-31T04:10:14;3.60;;;1.63;;
53108;SDS011;39007;53.090;6.074;2023-07-31T04:12:40;3.95;;;1.80;;
53108;SDS011;39007;53.090;6.074;2023-07-31T04:15:06;2.50;;;1.40;;
53108;SDS011;39007;53.090;6.074;2023-07-31T04:17:32;6.25;;;1.90;;
53108;SDS011;39007;53.090;6.074;2023-07-31T04:19:59;6.07;;;1.92;;
53108;SDS011;39007;53.090;6.074;2023-07-31T04:22:25;3.80;;;1.73;;
53108;SDS011;39007;53.090;6.074;2023-07-31T04:24:51;3.97;;;1.70;;
53108;SDS011;39007;53.090;6.074;2023-07-31T04:27:17;3.65;;;1.60;;
53108;SDS011;39007;53.090;6.074;2023-07-31T04:29:43;5.95;;;1.70;;
53108;SDS011;39007;53.090;6.074;2023-07-31T04:32:11;4.18;;;1.80;;
53108;SDS011;39007;53.090;6.074;2023-07-31T04:34:37;7.57;;;2.30;;
53108;SDS011;39007;53.090;6.074;2023-07-31T04:37:03;4.57;;;2.17;;
53108;SDS011;39007;53.090;6.074;2023-07-31T04:39:29;7.22;;;2.40;;
53108;SDS011;39007;53.090;6.074;2023-07-31T04:41:55;6.95;;;2.60;;
53108;SDS011;39007;53.090;6.074;2023-07-31T04:44:21;9.57;;;3.03;;
53108;SDS011;39007;53.090;6.074;2023-07-31T04:46:47;9.00;;;3.35;;
53108;SDS011;39007;53.090;6.074;2023-07-31T04:49:13;10.50;;;3.97;;
53108;SDS011;39007;53.090;6.074;2023-07-31T04:51:39;10.50;;;4.10;;
53108;SDS011;39007;53.090;6.074;2023-07-31T04:54:05;8.32;;;3.88;;
53108;SDS011;39007;53.090;6.074;2023-07-31T04:56:31;10.52;;;3.72;;
53108;SDS011;39007;53.090;6.074;2023-07-31T04:58:57;9.38;;;3.75;;
53108;SDS011;39007;53.090;6.074;2023-07-31T05:01:23;9.23;;;3.55;;
53108;SDS011;39007;53.090;6.074;2023-07-31T05:03:50;7.10;;;3.47;;
53108;SDS011;39007;53.090;6.074;2023-07-31T05:06:16;8.68;;;2.80;;
53108;SDS011;39007;53.090;6.074;2023-07-31T05:08:42;9.30;;;2.80;;
53108;SDS011;39007;53.090;6.074;2023-07-31T05:11:08;9.82;;;2.70;;
53108;SDS011;39007;53.090;6.074;2023-07-31T05:13:34;8.18;;;3.20;;
53108;SDS011;39007;53.090;6.074;2023-07-31T05:16:00;6.10;;;3.00;;
53108;SDS011;39007;53.090;6.074;2023-07-31T05:18:26;7.82;;;2.63;;
53108;SDS011;39007;53.090;6.074;2023-07-31T05:20:52;6.28;;;2.83;;
53108;SDS011;39007;53.090;6.074;2023-07-31T05:23:18;8.40;;;3.13;;
53108;SDS011;39007;53.090;6.074;2023-07-31T05:25:44;7.25;;;3.05;;
53108;SDS011;39007;53.090;6.074;2023-07-31T05:28:11;7.40;;;3.65;;
53108;SDS011;39007;53.090;6.074;2023-07-31T05:30:37;9.02;;;3.88;;
53108;SDS011;39007;53.090;6.074;2023-07-31T05:33:03;10.35;;;3.92;;
53108;SDS011;39007;53.090;6.074;2023-07-31T05:35:29;8.65;;;3.88;;
53108;SDS011;39007;53.090;6.074;2023-07-31T05:37:55;10.48;;;4.47;;
53108;SDS011;39007;53.090;6.074;2023-07-31T05:40:22;16.17;;;5.38;;
53108;SDS011;39007;53.090;6.074;2023-07-31T05:42:48;17.52;;;5.75;;
53108;SDS011;39007;53.090;6.074;2023-07-31T05:45:14;21.23;;;5.95;;
53108;SDS011;39007;53.090;6.074;2023-07-31T05:47:40;25.63;;;7.95;;
53108;SDS011;39007;53.090;6.074;2023-07-31T05:50:06;29.67;;;8.65;;
53108;SDS011;39007;53.090;6.074;2023-07-31T05:52:32;25.67;;;8.13;;
53108;SDS011;39007;53.090;6.074;2023-07-31T05:54:58;32.95;;;9.00;;
53108;SDS011;39007;53.090;6.074;2023-07-31T05:57:24;26.40;;;7.93;;
53108;SDS011;39007;53.090;6.074;2023-07-31T05:59:50;30.83;;;8.55;;
53108;SDS011;39007;53.090;6.074;2023-07-31T06:02:18;29.92;;;8.32;;
53108;SDS011;39007;53.090;6.074;2023-07-31T06:04:44;27.35;;;8.13;;
53108;SDS011;39007;53.090;6.074;2023-07-31T06:07:10;25.33;;;8.63;;
53108;SDS011;39007;53.090;6.074;2023-07-31T06:09:36;27.02;;;8.50;;
53108;SDS011;39007;53.090;6.074;2023-07-31T06:12:02;28.08;;;8.40;;
53108;SDS011;39007;53.090;6.074;2023-07-31T06:14:28;29.63;;;7.70;;
53108;SDS011;39007;53.090;6.074;2023-07-31T06:16:55;27.92;;;8.60;;
53108;SDS011;39007;53.090;6.074;2023-07-31T06:19:21;26.60;;;7.75;;
53108;SDS011;39007;53.090;6.074;2023-07-31T06:21:47;23.23;;;8.32;;
53108;SDS011;39007;53.090;6.074;2023-07-31T06:24:13;26.52;;;8.10;;
53108;SDS011;39007;53.090;6.074;2023-07-31T06:26:44;26.02;;;7.20;;
53108;SDS011;39007;53.090;6.074;2023-07-31T06:29:10;20.50;;;7.20;;
53108;SDS011;39007;53.090;6.074;2023-07-31T06:31:36;24.25;;;7.90;;
53108;SDS011;39007;53.090;6.074;2023-07-31T06:34:02;24.45;;;7.00;;
53108;SDS011;39007;53.090;6.074;2023-07-31T06:36:28;22.02;;;6.95;;
53108;SDS011;39007;53.090;6.074;2023-07-31T06:38:54;24.02;;;6.97;;
53108;SDS011;39007;53.090;6.074;2023-07-31T06:41:20;23.85;;;6.97;;
53108;SDS011;39007;53.090;6.074;2023-07-31T06:43:46;25.92;;;6.90;;
53108;SDS011;39007;53.090;6.074;2023-07-31T06:46:12;26.02;;;6.72;;
53108;SDS011;39007;53.090;6.074;2023-07-31T06:48:38;21.58;;;6.70;;
53108;SDS011;39007;53.090;6.074;2023-07-31T06:51:04;19.38;;;6.18;;
53108;SDS011;39007;53.090;6.074;2023-07-31T06:53:30;17.90;;;5.20;;
53108;SDS011;39007;53.090;6.074;2023-07-31T06:55:56;20.27;;;5.82;;
53108;SDS011;39007;53.090;6.074;2023-07-31T06:58:23;16.65;;;5.47;;
53108;SDS011;39007;53.090;6.074;2023-07-31T07:00:49;14.43;;;4.70;;
53108;SDS011;39007;53.090;6.074;2023-07-31T07:03:17;11.60;;;4.20;;
53108;SDS011;39007;53.090;6.074;2023-07-31T07:05:43;13.90;;;4.20;;
53108;SDS011;39007;53.090;6.074;2023-07-31T07:08:09;11.98;;;4.43;;
53108;SDS011;39007;53.090;6.074;2023-07-31T07:10:35;13.90;;;4.93;;
53108;SDS011;39007;53.090;6.074;2023-07-31T07:13:01;12.07;;;4.70;;
53108;SDS011;39007;53.090;6.074;2023-07-31T07:15:27;13.32;;;5.40;;
53108;SDS011;39007;53.090;6.074;2023-07-31T07:17:54;10.15;;;4.20;;
53108;SDS011;39007;53.090;6.074;2023-07-31T07:20:20;8.25;;;3.90;;
53108;SDS011;39007;53.090;6.074;2023-07-31T07:22:46;8.60;;;3.17;;
53108;SDS011;39007;53.090;6.074;2023-07-31T07:25:12;8.25;;;2.88;;
53108;SDS011;39007;53.090;6.074;2023-07-31T07:27:38;8.80;;;2.55;;
53108;SDS011;39007;53.090;6.074;2023-07-31T07:30:04;5.80;;;2.33;;
53108;SDS011;39007;53.090;6.074;2023-07-31T07:32:30;5.90;;;2.88;;
53108;SDS011;39007;53.090;6.074;2023-07-31T07:34:56;5.43;;;2.25;;
53108;SDS011;39007;53.090;6.074;2023-07-31T07:37:22;4.50;;;1.75;;
53108;SDS011;39007;53.090;6.074;2023-07-31T07:39:48;6.18;;;1.83;;
53108;SDS011;39007;53.090;6.074;2023-07-31T07:42:15;3.22;;;1.67;;
53108;SDS011;39007;53.090;6.074;2023-07-31T07:44:41;3.92;;;1.70;;
53108;SDS011;39007;53.090;6.074;2023-07-31T07:47:07;5.00;;;1.90;;
53108;SDS011;39007;53.090;6.074;2023-07-31T07:49:33;4.72;;;1.60;;
53108;SDS011;39007;53.090;6.074;2023-07-31T07:52:00;3.60;;;1.30;;
53108;SDS011;39007;53.090;6.074;2023-07-31T07:54:26;3.10;;;1.40;;
53108;SDS011;39007;53.090;6.074;2023-07-31T07:56:52;2.20;;;1.05;;
53108;SDS011;39007;53.090;6.074;2023-07-31T07:59:18;2.15;;;1.15;;
53108;SDS011;39007;53.090;6.074;2023-07-31T08:01:44;1.60;;;1.00;;
53108;SDS011;39007;53.090;6.074;2023-07-31T08:04:10;1.75;;;1.10;;
53108;SDS011;39007;53.090;6.074;2023-07-31T08:06:36;1.83;;;0.98;;
53108;SDS011;39007;53.090;6.074;2023-07-31T08:09:02;2.63;;;1.13;;
53108;SDS011;39007;53.090;6.074;2023-07-31T08:11:31;2.00;;;1.00;;
53108;SDS011;39007;53.090;6.074;2023-07-31T08:13:58;2.10;;;1.10;;
53108;SDS011;39007;53.090;6.074;2023-07-31T08:16:24;1.88;;;0.93;;
53108;SDS011;39007;53.090;6.074;2023-07-31T08:18:50;2.30;;;1.00;;
53108;SDS011;39007;53.090;6.074;2023-07-31T08:21:16;1.50;;;0.85;;
53108;SDS011;39007;53.090;6.074;2023-07-31T08:23:42;1.40;;;1.02;;
53108;SDS011;39007;53.090;6.074;2023-07-31T08:26:13;1.42;;;0.80;;
53108;SDS011;39007;53.090;6.074;2023-07-31T08:28:40;1.45;;;1.00;;
53108;SDS011;39007;53.090;6.074;2023-07-31T08:31:06;2.15;;;1.20;;
53108;SDS011;39007;53.090;6.074;2023-07-31T08:33:32;1.52;;;1.08;;
53108;SDS011;39007;53.090;6.074;2023-07-31T08:35:58;2.50;;;1.10;;
53108;SDS011;39007;53.090;6.074;2023-07-31T08:38:25;1.77;;;1.15;;
53108;SDS011;39007;53.090;6.074;2023-07-31T08:40:51;1.80;;;0.88;;
53108;SDS011;39007;53.090;6.074;2023-07-31T08:43:18;1.63;;;0.95;;
53108;SDS011;39007;53.090;6.074;2023-07-31T08:45:46;2.20;;;1.08;;
53108;SDS011;39007;53.090;6.074;2023-07-31T08:48:12;1.60;;;1.00;;
53108;SDS011;39007;53.090;6.074;2023-07-31T08:50:39;2.10;;;1.05;;
53108;SDS011;39007;53.090;6.074;2023-07-31T08:53:05;1.95;;;0.90;;
53108;SDS011;39007;53.090;6.074;2023-07-31T08:55:32;2.30;;;1.00;;
53108;SDS011;39007;53.090;6.074;2023-07-31T08:57:58;3.65;;;1.08;;
53108;SDS011;39007;53.090;6.074;2023-07-31T09:00:24;4.25;;;1.15;;
53108;SDS011;39007;53.090;6.074;2023-07-31T09:02:56;2.97;;;1.27;;
53108;SDS011;39007;53.090;6.074;2023-07-31T09:05:23;2.80;;;1.20;;
53108;SDS011;39007;53.090;6.074;2023-07-31T09:07:49;4.43;;;1.98;;
53108;SDS011;39007;53.090;6.074;2023-07-31T09:10:16;3.75;;;1.55;;
53108;SDS011;39007;53.090;6.074;2023-07-31T09:12:42;2.47;;;1.25;;
53108;SDS011;39007;53.090;6.074;2023-07-31T09:15:08;4.68;;;1.50;;
53108;SDS011;39007;53.090;6.074;2023-07-31T09:17:35;3.33;;;1.48;;
53108;SDS011;39007;53.090;6.074;2023-07-31T09:22:40;2.35;;;0.93;;
53108;SDS011;39007;53.090;6.074;2023-07-31T09:25:22;2.65;;;1.00;;
53108;SDS011;39007;53.090;6.074;2023-07-31T09:27:59;3.10;;;0.57;;
53108;SDS011;39007;53.090;6.074;2023-07-31T09:30:25;3.47;;;0.70;;
53108;SDS011;39007;53.090;6.074;2023-07-31T09:32:52;1.60;;;0.60;;
53108;SDS011;39007;53.090;6.074;2023-07-31T09:35:32;3.40;;;0.80;;
53108;SDS011;39007;53.090;6.074;2023-07-31T09:38:20;4.28;;;1.00;;
53108;SDS011;39007;53.090;6.074;2023-07-31T09:40:48;2.85;;;0.95;;
53108;SDS011;39007;53.090;6.074;2023-07-31T09:43:20;2.92;;;0.95;;
53108;SDS011;39007;53.090;6.074;2023-07-31T09:45:47;2.55;;;0.93;;
53108;SDS011;39007;53.090;6.074;2023-07-31T09:48:15;3.25;;;0.95;;
53108;SDS011;39007;53.090;6.074;2023-07-31T09:50:42;1.15;;;0.63;;
53108;SDS011;39007;53.090;6.074;2023-07-31T09:53:09;1.70;;;0.80;;
53108;SDS011;39007;53.090;6.074;2023-07-31T09:55:35;0.80;;;0.45;;
53108;SDS011;39007;53.090;6.074;2023-07-31T09:58:05;1.83;;;0.68;;
53108;SDS011;39007;53.090;6.074;2023-07-31T10:00:31;0.95;;;0.52;;
53108;SDS011;39007;53.090;6.074;2023-07-31T10:03:08;1.52;;;0.63;;
53108;SDS011;39007;53.090;6.074;2023-07-31T10:05:35;1.38;;;0.60;;
53108;SDS011;39007;53.090;6.074;2023-07-31T10:08:02;1.65;;;0.55;;
53108;SDS011;39007;53.090;6.074;2023-07-31T10:10:29;1.00;;;0.55;;
53108;SDS011;39007;53.090;6.074;2023-07-31T10:12:56;1.35;;;0.60;;
53108;SDS011;39007;53.090;6.074;2023-07-31T10:15:22;3.03;;;0.68;;
53108;SDS011;39007;53.090;6.074;2023-07-31T10:17:49;3.15;;;0.88;;
53108;SDS011;39007;53.090;6.074;2023-07-31T10:20:16;2.65;;;1.00;;
53108;SDS011;39007;53.090;6.074;2023-07-31T10:22:43;2.40;;;1.13;;
53108;SDS011;39007;53.090;6.074;2023-07-31T10:25:11;2.08;;;0.90;;
53108;SDS011;39007;53.090;6.074;2023-07-31T10:27:38;2.38;;;0.90;;
53108;SDS011;39007;53.090;6.074;2023-07-31T10:30:08;2.30;;;1.08;;
53108;SDS011;39007;53.090;6.074;2023-07-31T10:32:35;2.42;;;1.00;;
53108;SDS011;39007;53.090;6.074;2023-07-31T10:35:02;2.35;;;1.17;;
53108;SDS011;39007;53.090;6.074;2023-07-31T10:39:56;9.25;;;4.70;;
53108;SDS011;39007;53.090;6.074;2023-07-31T10:42:36;3.80;;;1.30;;
53108;SDS011;39007;53.090;6.074;2023-07-31T10:45:06;3.47;;;1.10;;
53108;SDS011;39007;53.090;6.074;2023-07-31T10:47:37;5.15;;;1.10;;
53108;SDS011;39007;53.090;6.074;2023-07-31T10:50:20;3.63;;;1.13;;
53108;SDS011;39007;53.090;6.074;2023-07-31T10:52:53;2.67;;;1.10;;
53108;SDS011;39007;53.090;6.074;2023-07-31T10:57:52;1.75;;;0.85;;
53108;SDS011;39007;53.090;6.074;2023-07-31T11:03:40;2.90;;;1.10;;
53108;SDS011;39007;53.090;6.074;2023-07-31T11:08:14;4.90;;;1.27;;
53108;SDS011;39007;53.090;6.074;2023-07-31T11:10:41;3.92;;;1.33;;
53108;SDS011;39007;53.090;6.074;2023-07-31T11:13:08;3.13;;;1.20;;
53108;SDS011;39007;53.090;6.074;2023-07-31T11:15:34;4.82;;;1.25;;
53108;SDS011;39007;53.090;6.074;2023-07-31T11:18:00;2.95;;;1.30;;
53108;SDS011;39007;53.090;6.074;2023-07-31T11:20:31;4.85;;;1.60;;
53108;SDS011;39007;53.090;6.074;2023-07-31T11:22:58;6.07;;;1.73;;
53108;SDS011;39007;53.090;6.074;2023-07-31T11:25:24;6.15;;;1.80;;
53108;SDS011;39007;53.090;6.074;2023-07-31T11:27:50;15.55;;;2.72;;
53108;SDS011;39007;53.090;6.074;2023-07-31T11:30:19;9.57;;;2.47;;
53108;SDS011;39007;53.090;6.074;2023-07-31T11:32:45;8.00;;;2.08;;
53108;SDS011;39007;53.090;6.074;2023-07-31T11:35:14;24.80;;;3.20;;
53108;SDS011;39007;53.090;6.074;2023-07-31T11:37:41;6.82;;;2.08;;
53108;SDS011;39007;53.090;6.074;2023-07-31T11:40:08;41.03;;;4.00;;
53108;SDS011;39007;53.090;6.074;2023-07-31T11:42:34;7.95;;;2.47;;
53108;SDS011;39007;53.090;6.074;2023-07-31T11:45:04;8.07;;;2.00;;
53108;SDS011;39007;53.090;6.074;2023-07-31T11:47:34;52.42;;;3.83;;
53108;SDS011;39007;53.090;6.074;2023-07-31T11:50:01;110.22;;;6.85;;
53108;SDS011;39007;53.090;6.074;2023-07-31T11:52:31;10.18;;;2.45;;
53108;SDS011;39007;53.090;6.074;2023-07-31T11:54:59;18.35;;;3.25;;
53108;SDS011;39007;53.090;6.074;2023-07-31T11:57:25;17.88;;;3.00;;
53108;SDS011;39007;53.090;6.074;2023-07-31T11:59:53;12.85;;;3.30;;
53108;SDS011;39007;53.090;6.074;2023-07-31T12:02:19;9.32;;;3.45;;
53108;SDS011;39007;53.090;6.074;2023-07-31T12:04:46;10.50;;;2.90;;
53108;SDS011;39007;53.090;6.074;2023-07-31T12:07:13;10.55;;;2.97;;
53108;SDS011;39007;53.090;6.074;2023-07-31T12:09:50;13.43;;;2.85;;
53108;SDS011;39007;53.090;6.074;2023-07-31T12:12:19;9.77;;;2.67;;
53108;SDS011;39007;53.090;6.074;2023-07-31T12:14:45;12.05;;;2.80;;
53108;SDS011;39007;53.090;6.074;2023-07-31T12:17:11;12.63;;;3.42;;
53108;SDS011;39007;53.090;6.074;2023-07-31T12:19:37;10.27;;;3.55;;
53108;SDS011;39007;53.090;6.074;2023-07-31T12:22:11;14.38;;;3.10;;
53108;SDS011;39007;53.090;6.074;2023-07-31T12:24:37;16.38;;;3.47;;
53108;SDS011;39007;53.090;6.074;2023-07-31T12:27:08;14.13;;;3.30;;
53108;SDS011;39007;53.090;6.074;2023-07-31T12:29:35;12.27;;;3.25;;
53108;SDS011;39007;53.090;6.074;2023-07-31T12:32:01;10.20;;;2.65;;
53108;SDS011;39007;53.090;6.074;2023-07-31T12:34:27;10.07;;;2.80;;
53108;SDS011;39007;53.090;6.074;2023-07-31T12:36:53;8.52;;;2.80;;
53108;SDS011;39007;53.090;6.074;2023-07-31T12:39:19;11.52;;;3.45;;
53108;SDS011;39007;53.090;6.074;2023-07-31T12:41:45;13.70;;;3.38;;
53108;SDS011;39007;53.090;6.074;2023-07-31T12:44:11;15.48;;;3.60;;
53108;SDS011;39007;53.090;6.074;2023-07-31T12:46:37;10.20;;;3.30;;
53108;SDS011;39007;53.090;6.074;2023-07-31T12:49:03;10.27;;;3.45;;
53108;SDS011;39007;53.090;6.074;2023-07-31T12:51:30;11.27;;;3.30;;
53108;SDS011;39007;53.090;6.074;2023-07-31T12:53:56;12.63;;;3.40;;
53108;SDS011;39007;53.090;6.074;2023-07-31T12:56:22;16.40;;;3.13;;
53108;SDS011;39007;53.090;6.074;2023-07-31T12:58:48;12.32;;;3.38;;
53108;SDS011;39007;53.090;6.074;2023-07-31T13:01:14;11.93;;;3.35;;
53108;SDS011;39007;53.090;6.074;2023-07-31T13:03:40;12.23;;;3.42;;
53108;SDS011;39007;53.090;6.074;2023-07-31T13:06:06;10.50;;;3.20;;
53108;SDS011;39007;53.090;6.074;2023-07-31T13:08:32;10.48;;;3.20;;
53108;SDS011;39007;53.090;6.074;2023-07-31T13:10:58;9.88;;;3.35;;
53108;SDS011;39007;53.090;6.074;2023-07-31T13:13:24;12.55;;;3.53;;
53108;SDS011;39007;53.090;6.074;2023-07-31T13:15:50;10.38;;;3.03;;
53108;SDS011;39007;53.090;6.074;2023-07-31T13:18:16;11.35;;;3.42;;
53108;SDS011;39007;53.090;6.074;2023-07-31T13:20:42;7.90;;;2.90;;
53108;SDS011;39007;53.090;6.074;2023-07-31T13:23:09;13.23;;;3.25;;
53108;SDS011;39007;53.090;6.074;2023-07-31T13:25:35;9.73;;;2.80;;
53108;SDS011;39007;53.090;6.074;2023-07-31T13:28:01;9.30;;;3.08;;
53108;SDS011;39007;53.090;6.074;2023-07-31T13:30:27;11.88;;;3.47;;
53108;SDS011;39007;53.090;6.074;2023-07-31T13:32:53;8.73;;;2.95;;
53108;SDS011;39007;53.090;6.074;2023-07-31T13:35:19;9.13;;;3.10;;
53108;SDS011;39007;53.090;6.074;2023-07-31T13:37:45;8.05;;;2.88;;
53108;SDS011;39007;53.090;6.074;2023-07-31T13:40:11;11.43;;;3.20;;
53108;SDS011;39007;53.090;6.074;2023-07-31T13:42:37;10.80;;;3.55;;
53108;SDS011;39007;53.090;6.074;2023-07-31T13:45:03;9.55;;;3.55;;
53108;SDS011;39007;53.090;6.074;2023-07-31T13:47:29;14.30;;;3.85;;
53108;SDS011;39007;53.090;6.074;2023-07-31T13:49:57;13.88;;;3.65;;
53108;SDS011;39007;53.090;6.074;2023-07-31T13:52:23;9.52;;;3.70;;
53108;SDS011;39007;53.090;6.074;2023-07-31T13:54:49;12.05;;;3.90;;
53108;SDS011;39007;53.090;6.074;2023-07-31T13:57:15;12.82;;;3.90;;
53108;SDS011;39007;53.090;6.074;2023-07-31T13:59:42;14.07;;;4.13;;
53108;SDS011;39007;53.090;6.074;2023-07-31T14:02:08;13.05;;;3.70;;
53108;SDS011;39007;53.090;6.074;2023-07-31T14:04:34;12.15;;;3.58;;
53108;SDS011;39007;53.090;6.074;2023-07-31T14:07:00;11.63;;;3.42;;
53108;SDS011;39007;53.090;6.074;2023-07-31T14:09:26;12.38;;;3.85;;
53108;SDS011;39007;53.090;6.074;2023-07-31T14:11:53;12.15;;;3.97;;
53108;SDS011;39007;53.090;6.074;2023-07-31T14:14:19;10.30;;;3.67;;
53108;SDS011;39007;53.090;6.074;2023-07-31T14:16:45;10.55;;;3.80;;
53108;SDS011;39007;53.090;6.074;2023-07-31T14:19:11;13.25;;;3.70;;
53108;SDS011;39007;53.090;6.074;2023-07-31T14:21:37;12.32;;;3.47;;
53108;SDS011;39007;53.090;6.074;2023-07-31T14:24:04;14.15;;;4.25;;
53108;SDS011;39007;53.090;6.074;2023-07-31T14:26:30;16.88;;;4.18;;
53108;SDS011;39007;53.090;6.074;2023-07-31T14:28:56;11.00;;;4.05;;
53108;SDS011;39007;53.090;6.074;2023-07-31T14:31:22;14.00;;;4.10;;
53108;SDS011;39007;53.090;6.074;2023-07-31T14:33:48;11.20;;;3.38;;
53108;SDS011;39007;53.090;6.074;2023-07-31T14:36:14;13.00;;;3.72;;
53108;SDS011;39007;53.090;6.074;2023-07-31T14:38:40;13.75;;;3.90;;
53108;SDS011;39007;53.090;6.074;2023-07-31T14:41:06;12.95;;;3.75;;
53108;SDS011;39007;53.090;6.074;2023-07-31T14:43:33;12.48;;;3.78;;
53108;SDS011;39007;53.090;6.074;2023-07-31T14:45:59;11.52;;;3.80;;
53108;SDS011;39007;53.090;6.074;2023-07-31T14:48:25;11.73;;;3.33;;
53108;SDS011;39007;53.090;6.074;2023-07-31T14:50:52;16.65;;;3.63;;
53108;SDS011;39007;53.090;6.074;2023-07-31T14:53:19;12.40;;;3.50;;
53108;SDS011;39007;53.090;6.074;2023-07-31T14:55:45;12.75;;;3.65;;
53108;SDS011;39007;53.090;6.074;2023-07-31T14:58:11;11.20;;;3.30;;
53108;SDS011;39007;53.090;6.074;2023-07-31T15:00:39;15.88;;;3.53;;